createdAt,value
2018-06-20T00:01:41.577Z,59.50
2018-06-20T00:04:10.624Z,59.50
2018-06-20T00:06:39.905Z,59.20
2018-06-20T00:09:09.861Z,59.40
2018-06-20T00:11:39.150Z,59.40
2018-06-20T00:14:08.200Z,59.70
2018-06-20T00:16:37.273Z,58.60
2018-06-20T00:19:06.316Z,59.20
2018-06-20T00:21:35.345Z,59.40
2018-06-20T00:24:04.617Z,59.50
2018-06-20T00:26:33.637Z,59.50
2018-06-20T00:29:02.704Z,59.50
2018-06-20T00:31:31.741Z,59.70
2018-06-20T00:34:00.999Z,59.50
2018-06-20T00:36:30.041Z,59.70
2018-06-20T00:38:59.096Z,59.50
2018-06-20T00:41:28.126Z,58.60
2018-06-20T00:43:57.390Z,58.60
2018-06-20T00:46:26.680Z,58.60
2018-06-20T00:48:55.929Z,58.20
2018-06-20T00:51:24.968Z,57.90
2018-06-20T00:53:54.010Z,58.00
2018-06-20T00:56:27.442Z,57.90
2018-06-20T00:58:56.561Z,57.60
2018-06-20T01:01:25.620Z,56.60
2018-06-20T01:03:54.921Z,56.90
2018-06-20T01:06:24.073Z,56.40
2018-06-20T01:08:55.929Z,56.70
2018-06-20T01:11:25.697Z,56.90
2018-06-20T01:13:54.812Z,56.40
2018-06-20T01:16:24.117Z,56.30
2018-06-20T01:18:53.157Z,56.00
2018-06-20T01:21:22.209Z,55.80
2018-06-20T01:23:51.375Z,56.10
2018-06-20T01:26:20.676Z,55.80
2018-06-20T01:28:49.715Z,56.60
2018-06-20T01:31:18.984Z,56.60
2018-06-20T01:33:48.238Z,56.60
2018-06-20T01:36:17.503Z,56.40
2018-06-20T01:38:46.523Z,55.50
2018-06-20T01:41:15.610Z,55.10
2018-06-20T01:43:44.641Z,54.90
2018-06-20T01:46:13.907Z,54.90
2018-06-20T01:48:43.168Z,54.90
2018-06-20T01:51:12.216Z,54.60
2018-06-20T01:53:41.243Z,55.10
2018-06-20T01:56:10.493Z,54.60
2018-06-20T01:58:39.612Z,55.10
2018-06-20T02:01:08.626Z,54.90
2018-06-20T02:03:37.702Z,54.60
2018-06-20T02:06:06.872Z,54.30
2018-06-20T02:08:35.929Z,54.30
2018-06-20T02:11:04.977Z,54.50
2018-06-20T02:13:34.219Z,54.20
2018-06-20T02:16:03.482Z,52.60
2018-06-20T02:18:32.536Z,53.50
2018-06-20T02:21:01.588Z,53.80
2018-06-20T02:23:30.662Z,52.40
2018-06-20T02:25:59.933Z,51.70
2018-06-20T02:28:29.200Z,52.00
2018-06-20T02:30:58.676Z,52.70
2018-06-20T02:33:27.947Z,52.00
2018-06-20T02:36:01.532Z,51.20
2018-06-20T02:38:30.626Z,51.20
2018-06-20T02:40:59.654Z,51.50
2018-06-20T02:43:28.920Z,51.20
2018-06-20T02:45:57.960Z,51.70
2018-06-20T02:48:26.985Z,50.50
2018-06-20T02:50:56.541Z,51.50
2018-06-20T02:53:26.069Z,50.90
2018-06-20T02:56:00.718Z,52.10
2018-06-20T02:58:30.243Z,49.60
2018-06-20T03:00:59.276Z,49.90
2018-06-20T03:03:28.533Z,50.50
2018-06-20T03:05:57.589Z,51.10
2018-06-20T03:08:26.850Z,51.70
2018-06-20T03:10:55.878Z,52.00
2018-06-20T03:13:24.955Z,52.40
2018-06-20T03:15:53.984Z,52.40
2018-06-20T03:18:23.259Z,53.80
2018-06-20T03:20:52.345Z,53.30
2018-06-20T03:23:21.376Z,53.20
2018-06-20T03:25:50.400Z,52.90
2018-06-20T03:28:19.536Z,53.30
2018-06-20T03:30:49.015Z,52.60
2018-06-20T03:33:18.296Z,52.90
2018-06-20T03:35:47.581Z,52.00
2018-06-20T03:38:16.823Z,52.00
2018-06-20T03:40:45.852Z,52.10
2018-06-20T03:43:14.904Z,52.70
2018-06-20T03:45:43.925Z,52.10
2018-06-20T03:48:13.164Z,52.40
2018-06-20T03:50:42.416Z,52.30
2018-06-20T03:53:11.529Z,51.80
2018-06-20T03:55:40.825Z,51.70
2018-06-20T03:58:10.101Z,52.10
2018-06-20T04:00:39.349Z,51.40
2018-06-20T04:03:08.362Z,51.50
2018-06-20T04:05:37.413Z,51.50
2018-06-20T04:08:06.434Z,52.40
2018-06-20T04:10:35.465Z,52.10
2018-06-20T04:13:04.835Z,51.40
2018-06-20T04:15:33.881Z,51.40
2018-06-20T04:18:02.931Z,50.40
2018-06-20T04:20:31.989Z,51.80
2018-06-20T04:23:01.037Z,48.70
2018-06-20T04:25:30.057Z,49.20
2018-06-20T04:27:59.190Z,50.90
2018-06-20T04:30:28.232Z,49.00
2018-06-20T04:32:57.266Z,49.60
2018-06-20T04:35:26.789Z,50.80
2018-06-20T04:37:56.079Z,49.80
2018-06-20T04:40:25.117Z,50.70
2018-06-20T04:42:54.618Z,49.30
2018-06-20T04:45:23.633Z,49.50
2018-06-20T04:47:52.647Z,49.30
2018-06-20T04:50:21.743Z,49.30
2018-06-20T04:52:50.761Z,49.50
2018-06-20T04:55:19.787Z,49.60
2018-06-20T04:57:48.872Z,49.80
2018-06-20T05:00:17.930Z,49.30
2018-06-20T05:02:47.367Z,50.50
2018-06-20T05:05:16.748Z,50.10
2018-06-20T05:07:46.237Z,49.30
2018-06-20T05:10:15.525Z,49.90
2018-06-20T05:12:45.051Z,49.30
2018-06-20T05:15:14.162Z,49.20
2018-06-20T05:17:43.176Z,49.90
2018-06-20T05:20:12.337Z,49.00
2018-06-20T05:22:41.787Z,49.90
2018-06-20T05:25:10.968Z,49.00
2018-06-20T05:27:40.008Z,50.10
2018-06-20T05:30:09.028Z,49.00
2018-06-20T05:32:38.913Z,48.40
2018-06-20T05:35:07.959Z,50.40
2018-06-20T05:37:37.230Z,47.70
2018-06-20T05:40:06.441Z,48.60
2018-06-20T05:42:35.500Z,50.10
2018-06-20T05:45:04.865Z,49.30
2018-06-20T05:47:34.340Z,49.60
2018-06-20T05:50:03.641Z,50.20
2018-06-20T05:52:32.889Z,50.20
2018-06-20T05:55:02.408Z,50.10
2018-06-20T05:57:31.450Z,49.60
2018-06-20T06:00:00.523Z,50.20
2018-06-20T06:02:29.613Z,50.50
2018-06-20T06:04:58.901Z,49.90
2018-06-20T06:07:28.245Z,50.70
2018-06-20T06:09:57.369Z,49.90
2018-06-20T06:12:26.441Z,50.40
2018-06-20T06:14:55.484Z,50.10
2018-06-20T06:17:24.556Z,50.90
2018-06-20T06:19:53.825Z,50.80
2018-06-20T06:22:23.333Z,49.30
2018-06-20T06:24:52.369Z,49.80
2018-06-20T06:27:21.449Z,48.90
2018-06-20T06:29:50.491Z,49.30
2018-06-20T06:32:19.581Z,48.90
2018-06-20T06:34:48.623Z,48.60
2018-06-20T06:37:17.669Z,48.90
2018-06-20T06:39:46.686Z,48.70
2018-06-20T06:42:15.768Z,48.60
2018-06-20T06:44:45.031Z,48.40
2018-06-20T06:47:14.085Z,48.90
2018-06-20T06:49:43.495Z,49.20
2018-06-20T06:52:12.552Z,49.60
2018-06-20T06:54:41.573Z,49.80
2018-06-20T06:57:10.672Z,50.10
2018-06-20T06:59:40.217Z,49.20
2018-06-20T07:02:09.478Z,49.90
2018-06-20T07:04:38.548Z,50.10
2018-06-20T07:07:07.679Z,50.80
2018-06-20T07:09:36.928Z,50.80
2018-06-20T07:12:05.978Z,50.80
2018-06-20T07:14:35.026Z,51.20
2018-06-20T07:17:04.301Z,50.80
2018-06-20T07:19:33.394Z,52.10
2018-06-20T07:22:02.429Z,52.30
2018-06-20T07:24:31.612Z,52.70
2018-06-20T07:27:00.710Z,52.40
2018-06-20T07:29:29.756Z,52.90
2018-06-20T07:31:58.785Z,53.20
2018-06-20T07:34:27.853Z,52.70
2018-06-20T07:36:57.421Z,52.60
2018-06-20T07:39:26.545Z,52.40
2018-06-20T07:41:55.645Z,52.90
2018-06-20T07:44:24.680Z,53.20
2018-06-20T07:46:53.697Z,53.90
2018-06-20T07:49:22.860Z,53.80
2018-06-20T07:51:51.939Z,53.30
2018-06-20T07:54:20.945Z,53.50
2018-06-20T07:56:50.650Z,53.00
2018-06-20T07:59:19.920Z,52.90
2018-06-20T08:02:05.541Z,53.50
2018-06-20T08:04:39.985Z,53.80
2018-06-20T08:07:14.308Z,53.50
2018-06-20T08:09:48.749Z,53.90
2018-06-20T08:12:23.129Z,54.30
2018-06-20T08:14:57.288Z,53.30
2018-06-20T08:17:31.725Z,53.80
2018-06-20T08:20:02.573Z,53.50
2018-06-20T08:22:31.643Z,53.20
2018-06-20T08:25:04.434Z,53.30
2018-06-20T08:27:34.386Z,53.20
2018-06-20T08:30:04.828Z,52.30
2018-06-20T08:32:34.585Z,52.40
2018-06-20T08:35:03.791Z,52.60
2018-06-20T08:37:32.825Z,51.70
2018-06-20T08:40:02.354Z,51.80
2018-06-20T08:42:31.390Z,52.30
2018-06-20T08:45:00.418Z,52.90
2018-06-20T08:47:29.499Z,52.30
2018-06-20T08:49:58.541Z,52.00
2018-06-20T08:52:27.804Z,50.80
2018-06-20T08:54:56.910Z,50.20
2018-06-20T08:57:26.420Z,49.30
2018-06-20T08:59:55.749Z,49.30
2018-06-20T09:02:25.005Z,48.10
2018-06-20T09:04:59.581Z,48.40
2018-06-20T09:07:34.187Z,48.30
2018-06-20T09:10:08.685Z,48.00
2018-06-20T09:12:43.245Z,47.50
2018-06-20T09:15:17.845Z,47.80
2018-06-20T09:17:52.122Z,48.90
2018-06-20T09:20:21.210Z,50.10
2018-06-20T09:22:50.222Z,50.50
2018-06-20T09:25:19.317Z,51.10
2018-06-20T09:27:48.364Z,49.90
2018-06-20T09:30:17.404Z,50.20
2018-06-20T09:32:46.688Z,50.10
2018-06-20T09:35:15.746Z,51.40
2018-06-20T09:37:45.349Z,50.90
2018-06-20T09:40:14.496Z,50.80
2018-06-20T09:42:43.551Z,51.20
2018-06-20T09:45:13.346Z,51.80
2018-06-20T09:47:42.556Z,53.00
2018-06-20T09:50:16.924Z,52.70
2018-06-20T09:52:46.006Z,52.10
2018-06-20T09:55:15.241Z,50.90
2018-06-20T09:57:44.279Z,49.30
2018-06-20T10:00:18.754Z,49.00
2018-06-20T10:02:53.034Z,48.30
2018-06-20T10:05:27.584Z,47.40
2018-06-20T10:08:02.113Z,47.10
2018-06-20T10:10:36.486Z,46.50
2018-06-20T10:13:13.209Z,44.70
2018-06-20T10:15:42.432Z,43.90
2018-06-20T10:18:11.703Z,42.70
2018-06-20T10:20:40.817Z,42.20
2018-06-20T10:23:09.890Z,42.80
2018-06-20T10:25:39.184Z,41.80
2018-06-20T10:28:08.248Z,41.20
2018-06-20T10:30:38.206Z,40.00
2018-06-20T10:33:07.542Z,39.40
2018-06-20T10:35:36.678Z,38.20
2018-06-20T10:38:05.972Z,38.10
2018-06-20T10:40:35.031Z,38.50
2018-06-20T10:43:04.108Z,38.20
2018-06-20T10:45:38.888Z,37.90
2018-06-20T10:48:15.402Z,37.90
2018-06-20T10:50:44.618Z,37.60
2018-06-20T10:53:13.722Z,36.90
2018-06-20T10:55:42.793Z,36.90
2018-06-20T10:58:17.301Z,37.20
2018-06-20T11:00:51.728Z,37.10
2018-06-20T11:03:26.271Z,36.80
2018-06-20T11:06:00.748Z,37.40
2018-06-20T11:08:35.114Z,38.10
2018-06-20T11:11:09.529Z,39.30
2018-06-20T11:13:38.634Z,39.90
2018-06-20T11:16:07.901Z,39.70
2018-06-20T11:18:41.223Z,39.70
2018-06-20T11:21:10.257Z,39.10
2018-06-20T11:23:39.424Z,38.80
2018-06-20T11:26:08.476Z,37.90
2018-06-20T11:28:37.534Z,37.60
2018-06-20T11:31:06.669Z,36.60
2018-06-20T11:33:35.777Z,36.30
2018-06-20T11:36:04.874Z,37.50
2018-06-20T11:38:33.976Z,38.70
2018-06-20T11:41:03.130Z,39.60
2018-06-20T11:43:32.436Z,39.40
2018-06-20T11:46:07.361Z,39.60
2018-06-20T11:48:36.440Z,39.60
2018-06-20T11:51:06.087Z,39.30
2018-06-20T11:53:35.163Z,38.80
2018-06-20T11:56:04.349Z,38.50
2018-06-20T11:58:38.807Z,37.90
2018-06-20T12:01:13.264Z,37.40
2018-06-20T12:03:47.562Z,37.50
2018-06-20T12:06:21.994Z,37.50
2018-06-20T12:08:56.476Z,37.20
2018-06-20T12:11:30.855Z,37.40
2018-06-20T12:14:05.409Z,36.90
2018-06-20T12:16:36.105Z,36.80
2018-06-20T12:19:10.509Z,36.60
2018-06-20T12:21:45.010Z,36.50
2018-06-20T12:24:19.384Z,37.10
2018-06-20T12:26:53.878Z,37.90
2018-06-20T12:29:28.184Z,38.50
2018-06-20T12:32:02.837Z,38.40
2018-06-20T12:34:37.213Z,37.80
2018-06-20T12:37:11.705Z,37.60
2018-06-20T12:39:40.075Z,38.10
2018-06-20T12:42:14.678Z,38.70
2018-06-20T12:44:49.035Z,38.40
2018-06-20T12:47:28.809Z,38.20
2018-06-20T12:50:01.017Z,37.50
2018-06-20T12:52:30.161Z,37.50
2018-06-20T12:54:59.374Z,38.70
2018-06-20T12:57:28.506Z,39.30
2018-06-20T12:59:58.113Z,39.00
2018-06-20T13:02:27.203Z,38.20
2018-06-20T13:04:56.547Z,37.50
2018-06-20T13:07:25.639Z,36.60
2018-06-20T13:09:54.669Z,36.30
2018-06-20T13:12:23.793Z,36.60
2018-06-20T13:14:53.102Z,35.90
2018-06-20T13:17:22.146Z,35.60
2018-06-20T13:19:51.198Z,34.80
2018-06-20T13:22:20.244Z,34.40
2018-06-20T13:24:49.337Z,34.50
2018-06-20T13:27:23.734Z,34.80
2018-06-20T13:29:58.381Z,34.20
2018-06-20T13:32:32.736Z,34.40
2018-06-20T13:35:07.041Z,35.60
2018-06-20T13:37:41.550Z,35.70
2018-06-20T13:40:16.380Z,35.70
2018-06-20T13:42:50.858Z,35.70
2018-06-20T13:45:25.218Z,35.30
2018-06-20T13:48:57.193Z,34.80
2018-06-20T13:51:26.486Z,34.20
2018-06-20T13:53:55.769Z,33.10
2018-06-20T13:56:24.878Z,33.50
2018-06-20T13:58:53.976Z,32.80
2018-06-20T14:01:23.050Z,33.40
2018-06-20T14:03:52.368Z,33.80
2018-06-20T14:06:21.652Z,34.50
2018-06-20T14:08:50.795Z,34.00
2018-06-20T14:11:19.909Z,34.00
2018-06-20T14:13:48.914Z,34.40
2018-06-20T14:16:18.099Z,34.50
2018-06-20T14:18:47.945Z,35.10
2018-06-20T14:21:22.342Z,34.50
2018-06-20T14:23:51.432Z,35.00
2018-06-20T14:26:21.065Z,34.80
2018-06-20T14:28:50.550Z,33.80
2018-06-20T14:31:24.783Z,33.20
2018-06-20T14:33:59.452Z,33.70
2018-06-20T14:36:33.813Z,33.80
2018-06-20T14:39:08.221Z,33.10
2018-06-20T14:41:42.541Z,33.10
2018-06-20T14:44:11.874Z,33.20
2018-06-20T14:46:41.198Z,32.90
2018-06-20T14:49:10.270Z,32.60
2018-06-20T14:51:39.522Z,33.10
2018-06-20T14:54:08.856Z,32.30
2018-06-20T14:56:38.175Z,32.60
2018-06-20T14:59:07.219Z,33.20
2018-06-20T15:01:37.377Z,33.70
2018-06-20T15:04:06.427Z,34.10
2018-06-20T15:06:36.066Z,34.10
2018-06-20T15:09:07.390Z,34.10
2018-06-20T15:11:36.730Z,34.20
2018-06-20T15:14:05.772Z,33.50
2018-06-20T15:16:40.121Z,33.20
2018-06-20T15:19:09.195Z,32.90
2018-06-20T15:21:38.248Z,32.20
2018-06-20T15:24:07.314Z,32.20
2018-06-20T15:26:41.612Z,32.80
2018-06-20T15:29:16.352Z,32.50
2018-06-20T15:31:51.679Z,32.90
2018-06-20T15:34:26.121Z,33.50
2018-06-20T15:41:35.238Z,33.40
2018-06-20T15:44:05.013Z,32.90
2018-06-20T15:46:34.089Z,32.60
2018-06-20T15:49:03.407Z,33.20
2018-06-20T15:51:32.450Z,33.40
2018-06-20T15:54:01.473Z,33.20
2018-06-20T15:56:31.223Z,33.50
2018-06-20T15:59:00.490Z,33.20
2018-06-20T16:01:29.513Z,33.40
2018-06-20T16:03:58.585Z,33.40
2018-06-20T16:06:27.622Z,33.20
2018-06-20T16:09:02.270Z,33.80
2018-06-20T16:11:31.620Z,34.50
2018-06-20T16:14:00.642Z,34.20
2018-06-20T16:16:29.717Z,34.50
2018-06-20T16:19:03.993Z,34.00
2018-06-20T16:21:38.213Z,34.00
2018-06-20T16:24:12.669Z,34.00
2018-06-20T16:26:47.228Z,33.80
2018-06-20T16:29:21.810Z,34.00
2018-06-20T16:31:51.668Z,33.50
2018-06-20T16:34:21.118Z,34.00
2018-06-20T16:36:51.226Z,33.80
2018-06-20T16:39:20.263Z,33.80
2018-06-20T16:41:50.459Z,33.50
2018-06-20T16:44:19.534Z,34.00
2018-06-20T16:46:48.582Z,34.20
2018-06-20T16:49:17.661Z,33.70
2018-06-20T16:51:47.092Z,34.00
2018-06-20T16:54:16.524Z,34.00
2018-06-20T16:56:45.889Z,34.40
2018-06-20T16:59:14.947Z,34.40
2018-06-20T17:01:49.677Z,34.10
2018-06-20T17:04:18.922Z,34.70
2018-06-20T17:06:48.281Z,34.50
2018-06-20T17:09:17.328Z,34.80
2018-06-20T17:11:50.588Z,34.70
2018-06-20T17:14:25.134Z,35.10
2018-06-20T17:17:00.143Z,35.10
2018-06-20T17:19:34.625Z,35.10
2018-06-20T17:22:09.831Z,34.70
2018-06-20T17:24:44.393Z,34.50
2018-06-20T17:27:13.441Z,35.00
2018-06-20T17:29:43.121Z,35.00
2018-06-20T17:32:12.229Z,35.30
2018-06-20T17:34:41.295Z,35.60
2018-06-20T17:37:10.363Z,35.60
2018-06-20T17:39:39.690Z,35.70
2018-06-20T17:42:08.807Z,35.70
2018-06-20T17:44:37.841Z,35.70
2018-06-20T17:47:07.156Z,35.60
2018-06-20T17:49:36.324Z,35.60
2018-06-20T17:52:05.528Z,35.70
2018-06-20T17:54:34.916Z,35.90
2018-06-20T17:57:03.965Z,35.90
2018-06-20T17:59:33.534Z,35.90
2018-06-20T18:02:02.629Z,35.70
2018-06-20T18:04:37.111Z,35.70
2018-06-20T18:07:11.613Z,35.90
2018-06-20T18:09:46.272Z,36.00
2018-06-20T18:12:21.962Z,36.30
2018-06-20T18:15:00.386Z,36.30
2018-06-20T18:17:29.455Z,36.20
2018-06-20T18:19:58.505Z,36.20
2018-06-20T18:22:27.622Z,36.00
2018-06-20T18:24:56.882Z,36.20
2018-06-20T18:27:25.963Z,36.30
2018-06-20T18:29:55.007Z,36.80
2018-06-20T18:32:24.090Z,36.30
2018-06-20T18:34:53.167Z,36.60
2018-06-20T18:37:22.669Z,36.00
2018-06-20T18:39:57.182Z,36.50
2018-06-20T18:42:26.246Z,36.50
2018-06-20T18:44:55.341Z,36.50
2018-06-20T18:47:29.672Z,36.30
2018-06-20T18:49:58.809Z,36.50
2018-06-20T18:52:27.840Z,36.80
2018-06-20T18:54:57.327Z,37.60
2018-06-20T18:57:31.789Z,37.50
2018-06-20T19:00:06.518Z,37.20
2018-06-20T19:02:41.019Z,37.40
2018-06-20T19:05:15.365Z,37.50
2018-06-20T19:07:50.539Z,37.50
2018-06-20T19:10:21.497Z,37.80
2018-06-20T19:12:50.823Z,38.10
2018-06-20T19:15:20.368Z,38.20
2018-06-20T19:17:50.063Z,37.90
2018-06-20T19:20:19.357Z,38.70
2018-06-20T19:22:49.017Z,38.10
2018-06-20T19:25:18.266Z,38.40
2018-06-20T19:27:47.390Z,38.50
2018-06-20T19:30:16.934Z,39.30
2018-06-20T19:32:46.077Z,38.80
2018-06-20T19:35:15.333Z,38.80
2018-06-20T19:37:44.433Z,38.70
2018-06-20T19:40:13.901Z,39.40
2018-06-20T19:42:43.053Z,40.20
2018-06-20T19:45:12.191Z,39.30
2018-06-20T19:47:41.267Z,39.60
2018-06-20T19:50:10.296Z,39.30
2018-06-20T19:52:39.359Z,39.90
2018-06-20T19:55:08.543Z,39.70
2018-06-20T19:57:37.605Z,39.90
2018-06-20T20:00:06.878Z,40.20
2018-06-20T20:02:36.190Z,39.90
2018-06-20T20:05:06.349Z,39.90
2018-06-20T20:07:35.507Z,40.00
2018-06-20T20:10:04.613Z,40.30
2018-06-20T20:12:33.685Z,40.70
2018-06-20T20:15:02.793Z,40.70
2018-06-20T20:17:31.936Z,40.90
2018-06-20T20:20:01.030Z,40.50
2018-06-20T20:22:30.325Z,40.60
2018-06-20T20:24:59.364Z,40.70
2018-06-20T20:27:28.451Z,40.70
2018-06-20T20:29:58.092Z,40.70
2018-06-20T20:32:27.467Z,40.70
2018-06-20T20:34:56.578Z,40.60
2018-06-20T20:37:26.405Z,40.60
2018-06-20T20:39:55.450Z,40.90
2018-06-20T20:42:24.489Z,40.90
2018-06-20T20:44:53.533Z,41.30
2018-06-20T20:47:23.508Z,41.60
2018-06-20T20:49:52.936Z,41.00
2018-06-20T20:52:22.254Z,41.30
2018-06-20T20:54:51.936Z,41.20
2018-06-20T20:57:21.123Z,41.50
2018-06-20T20:59:50.229Z,41.20
2018-06-20T21:02:19.260Z,41.30
2018-06-20T21:04:48.453Z,41.60
2018-06-20T21:07:17.807Z,41.50
2018-06-20T21:09:46.891Z,41.60
2018-06-20T21:12:16.105Z,41.50
2018-06-20T21:14:45.188Z,41.90
2018-06-20T21:17:14.673Z,41.80
2018-06-20T21:19:44.012Z,41.90
2018-06-20T21:22:13.070Z,41.90
2018-06-20T21:24:43.434Z,42.20
2018-06-20T21:27:12.708Z,42.10
2018-06-20T21:29:41.775Z,42.20
2018-06-20T21:32:10.826Z,42.10
2018-06-20T21:34:40.048Z,42.40
2018-06-20T21:37:09.409Z,42.50
2018-06-20T21:39:40.310Z,42.40
2018-06-20T21:42:09.378Z,42.40
2018-06-20T21:44:38.408Z,42.50
2018-06-20T21:47:07.685Z,42.50
2018-06-20T21:49:37.020Z,42.50
2018-06-20T21:52:06.841Z,42.70
2018-06-20T21:54:35.897Z,42.80
2018-06-20T21:57:05.054Z,42.70
2018-06-20T21:59:34.276Z,43.10
2018-06-20T22:02:04.528Z,43.30
2018-06-20T22:04:33.821Z,43.30
2018-06-20T22:07:02.861Z,43.10
2018-06-20T22:09:31.938Z,43.30
2018-06-20T22:12:01.049Z,43.30
2018-06-20T22:14:30.586Z,43.30
2018-06-20T22:16:59.660Z,43.40
2018-06-20T22:19:28.726Z,43.60
2018-06-20T22:21:57.857Z,43.90
2018-06-20T22:24:26.952Z,43.90
2018-06-20T22:26:56.021Z,44.10
2018-06-20T22:29:25.386Z,44.10
2018-06-20T22:31:54.616Z,44.10
2018-06-20T22:34:23.714Z,44.30
2018-06-20T22:36:52.974Z,44.30
2018-06-20T22:39:22.342Z,44.30
2018-06-20T22:41:51.838Z,44.30
2018-06-20T22:44:21.108Z,44.10
2018-06-20T22:46:50.233Z,44.30
2018-06-20T22:49:19.379Z,44.30
2018-06-20T22:51:48.483Z,44.40
2018-06-20T22:54:17.611Z,44.40
2018-06-20T22:56:46.759Z,44.40
2018-06-20T22:59:15.897Z,44.60
2018-06-20T23:01:45.228Z,44.60
2018-06-20T23:04:14.461Z,44.70
2018-06-20T23:06:43.580Z,44.60
2018-06-20T23:09:12.801Z,44.60
2018-06-20T23:11:47.396Z,44.60
2018-06-20T23:14:16.512Z,44.90
2018-06-20T23:16:45.648Z,44.90
2018-06-20T23:19:14.822Z,44.70
2018-06-20T23:21:44.774Z,44.60
2018-06-20T23:24:13.928Z,44.90
2018-06-20T23:26:43.309Z,45.00
2018-06-20T23:29:12.444Z,45.00
2018-06-20T23:31:41.635Z,45.00
2018-06-20T23:34:11.026Z,45.00
2018-06-20T23:36:40.142Z,45.20
2018-06-20T23:39:10.071Z,45.20
2018-06-20T23:41:39.475Z,45.00
2018-06-20T23:44:08.589Z,45.20
2018-06-20T23:46:37.875Z,45.50
2018-06-20T23:49:07.203Z,45.30
2018-06-20T23:51:36.311Z,45.30
2018-06-20T23:54:05.464Z,45.30
2018-06-20T23:56:35.039Z,45.30
2018-06-20T23:59:04.260Z,45.60
